createdAt,value
2022-07-26T00:00:24.947Z,99923.34
2022-07-26T00:02:27.118Z,99925.84
2022-07-26T00:04:29.222Z,99929.53
2022-07-26T00:06:31.282Z,99933.16
2022-07-26T00:08:33.374Z,99924.69
2022-07-26T00:10:35.582Z,99925.91
2022-07-26T00:12:37.728Z,99925.84
2022-07-26T00:14:39.798Z,99921.75
2022-07-26T00:16:43.303Z,99917.75
2022-07-26T00:18:45.531Z,99911.50
2022-07-26T00:20:48.439Z,99909.97
2022-07-26T00:22:50.661Z,99921.25
2022-07-26T00:24:52.709Z,99908.31
2022-07-26T00:26:54.753Z,99906.34
2022-07-26T00:28:56.878Z,99905.66
2022-07-26T00:30:59.042Z,99910.09
2022-07-26T00:33:01.136Z,99907.75
2022-07-26T00:35:03.564Z,99904.19
2022-07-26T00:37:05.606Z,99893.72
2022-07-26T00:39:07.905Z,99897.31
2022-07-26T00:41:10.138Z,99904.56
2022-07-26T00:43:12.182Z,99911.81
2022-07-26T00:45:14.634Z,99915.91
2022-07-26T00:47:16.972Z,99916.34
2022-07-26T00:49:19.105Z,99914.31
2022-07-26T00:51:21.657Z,99923.66
2022-07-26T00:53:23.871Z,99936.53
2022-07-26T00:55:25.928Z,99943.47
2022-07-26T00:57:28.025Z,99938.38
2022-07-26T00:59:30.092Z,99941.25
2022-07-26T01:01:32.199Z,99938.03
2022-07-26T01:03:39.637Z,99936.03
2022-07-26T01:05:42.479Z,99936.47
2022-07-26T01:07:44.587Z,99935.72
2022-07-26T01:09:46.605Z,99928.09
2022-07-26T01:11:48.632Z,99931.78
2022-07-26T01:13:51.310Z,99924.56
2022-07-26T01:15:53.438Z,99923.41
2022-07-26T01:17:55.645Z,99915.44
2022-07-26T01:19:57.629Z,99923.19
2022-07-26T01:21:59.697Z,99920.81
2022-07-26T01:24:02.482Z,99921.31
2022-07-26T01:26:04.629Z,99912.50
2022-07-26T01:28:07.294Z,99914.16
2022-07-26T01:30:11.284Z,99916.19
2022-07-26T01:32:14.603Z,99912.59
2022-07-26T01:34:16.839Z,99915.41
2022-07-26T01:36:19.076Z,99905.28
2022-07-26T01:38:21.093Z,99908.06
2022-07-26T01:40:23.111Z,99900.91
2022-07-26T01:42:25.141Z,99906.63
2022-07-26T01:44:27.137Z,99913.94
2022-07-26T01:46:29.288Z,99910.34
2022-07-26T01:48:31.409Z,99912.75
2022-07-26T01:50:33.911Z,99903.50
2022-07-26T01:52:36.092Z,99905.47
2022-07-26T01:54:38.147Z,99899.44
2022-07-26T01:56:40.224Z,99892.22
2022-07-26T01:58:42.333Z,99893.41
2022-07-26T02:00:44.630Z,99888.56
2022-07-26T02:02:46.740Z,99885.75
2022-07-26T02:05:02.000Z,99893.00
2022-07-26T02:07:05.554Z,99889.47
2022-07-26T02:09:14.975Z,99889.88
2022-07-26T02:11:16.981Z,99910.38
2022-07-26T02:13:19.065Z,99944.25
2022-07-26T02:15:21.105Z,99946.72
2022-07-26T02:17:23.101Z,99963.22
2022-07-26T02:19:25.482Z,99948.38
2022-07-26T02:21:27.490Z,99950.38
2022-07-26T02:23:29.560Z,99945.13
2022-07-26T02:25:31.624Z,99936.25
2022-07-26T02:27:33.632Z,99928.63
2022-07-26T02:29:35.657Z,99929.38
2022-07-26T02:31:37.725Z,99942.66
2022-07-26T02:33:39.773Z,99928.97
2022-07-26T02:35:42.048Z,99938.25
2022-07-26T02:37:44.171Z,99931.84
2022-07-26T02:39:46.246Z,99923.03
2022-07-26T02:41:49.292Z,99926.69
2022-07-26T02:43:51.289Z,99929.88
2022-07-26T02:46:01.922Z,99925.03
2022-07-26T02:48:04.879Z,99931.50
2022-07-26T02:50:07.794Z,99927.13
2022-07-26T02:52:09.796Z,99919.88
2022-07-26T02:54:12.301Z,99912.16
2022-07-26T02:56:14.353Z,99914.25
2022-07-26T02:58:16.548Z,99925.91
2022-07-26T03:00:23.308Z,99917.91
2022-07-26T03:02:25.361Z,99931.16
2022-07-26T03:04:27.360Z,99918.31
2022-07-26T03:06:29.384Z,99921.50
2022-07-26T03:08:31.447Z,99923.91
2022-07-26T03:10:33.635Z,99931.16
2022-07-26T03:12:35.690Z,99926.69
2022-07-26T03:14:37.714Z,99926.31
2022-07-26T03:16:39.772Z,99932.69
2022-07-26T03:18:41.822Z,99934.69
2022-07-26T03:20:43.862Z,99934.31
2022-07-26T03:22:45.859Z,99949.66
2022-07-26T03:24:47.852Z,99957.78
2022-07-26T03:26:49.860Z,99949.03
2022-07-26T03:28:51.966Z,99959.13
2022-07-26T03:30:54.152Z,99962.31
2022-07-26T03:32:56.216Z,99960.22
2022-07-26T03:34:58.255Z,99954.91
2022-07-26T03:37:00.263Z,99953.69
2022-07-26T03:39:02.296Z,99952.44
2022-07-26T03:41:04.323Z,99956.81
2022-07-26T03:43:06.295Z,99958.03
2022-07-26T03:45:08.999Z,99964.81
2022-07-26T03:47:11.138Z,99970.84
2022-07-26T03:49:16.586Z,99976.44
2022-07-26T03:51:19.347Z,99981.25
2022-07-26T03:53:21.365Z,99972.78
2022-07-26T03:55:42.171Z,99960.25
2022-07-26T03:57:44.167Z,99959.84
2022-07-26T03:59:46.218Z,99946.13
2022-07-26T04:01:48.436Z,99949.75
2022-07-26T04:03:50.492Z,99945.28
2022-07-26T04:07:55.882Z,99978.69
2022-07-26T04:09:57.984Z,99969.78
2022-07-26T04:11:59.991Z,99971.78
2022-07-26T04:14:02.258Z,99994.28
2022-07-26T04:16:04.752Z,99999.09
2022-07-26T04:18:06.761Z,100002.31
2022-07-26T04:20:10.531Z,99992.66
2022-07-26T04:22:12.925Z,99994.28
2022-07-26T04:24:14.966Z,100001.53
2022-07-26T04:26:16.981Z,100005.91
2022-07-26T04:28:19.071Z,100009.13
2022-07-26T04:30:21.582Z,100016.81
2022-07-26T04:32:23.579Z,100018.03
2022-07-26T04:34:25.671Z,100024.09
2022-07-26T04:36:27.673Z,100022.94
2022-07-26T04:38:30.276Z,100037.03
2022-07-26T04:40:33.761Z,100053.97
2022-07-26T04:42:36.327Z,100051.13
2022-07-26T04:44:38.773Z,100039.44
2022-07-26T04:46:40.989Z,100052.00
2022-07-26T04:48:47.055Z,100054.81
2022-07-26T04:50:49.116Z,100048.38
2022-07-26T04:52:51.712Z,100038.28
2022-07-26T04:54:53.650Z,100038.81
2022-07-26T04:56:55.669Z,100059.75
2022-07-26T04:58:57.645Z,100071.41
2022-07-26T05:01:09.976Z,100095.97
2022-07-26T05:03:12.357Z,100114.75
2022-07-26T05:05:14.362Z,100119.66
2022-07-26T05:07:16.401Z,100110.03
2022-07-26T05:09:18.463Z,100122.06
2022-07-26T05:11:20.473Z,100132.41
2022-07-26T05:13:23.085Z,100134.47
2022-07-26T05:15:35.009Z,100129.31
2022-07-26T05:17:40.600Z,100132.13
2022-07-26T05:19:47.476Z,100156.75
2022-07-26T05:21:51.751Z,100136.72
2022-07-26T05:23:55.089Z,100115.81
2022-07-26T05:25:57.119Z,100112.56
2022-07-26T05:27:59.125Z,100117.72
2022-07-26T05:30:01.113Z,100126.97
2022-07-26T05:32:03.321Z,100123.34
2022-07-26T05:34:05.555Z,100118.13
2022-07-26T05:36:08.057Z,100119.66
2022-07-26T05:38:10.056Z,100130.09
2022-07-26T05:40:12.931Z,100132.91
2022-07-26T05:42:14.948Z,100147.09
2022-07-26T05:44:17.029Z,100139.09
2022-07-26T05:46:20.587Z,100134.28
2022-07-26T05:48:22.588Z,100142.28
2022-07-26T05:50:24.567Z,100146.69
2022-07-26T05:52:26.595Z,100142.19
2022-07-26T05:54:28.661Z,100135.38
2022-07-26T05:56:30.676Z,100134.16
2022-07-26T05:58:32.694Z,100124.47
2022-07-26T06:00:34.784Z,100140.13
2022-07-26T06:02:36.930Z,100136.47
2022-07-26T06:04:39.198Z,100144.94
2022-07-26T06:06:41.288Z,100142.56
2022-07-26T06:08:43.465Z,100145.78
2022-07-26T06:10:46.297Z,100150.59
2022-07-26T06:12:48.293Z,100151.38
2022-07-26T06:14:50.353Z,100151.38
2022-07-26T06:16:52.498Z,100146.53
2022-07-26T06:18:54.506Z,100148.13
2022-07-26T06:20:56.736Z,100154.56
2022-07-26T06:23:05.190Z,100154.97
2022-07-26T06:25:07.814Z,100164.63
2022-07-26T06:27:09.806Z,100160.25
2022-07-26T06:29:12.356Z,100155.81
2022-07-26T06:31:14.484Z,100152.59
2022-07-26T06:33:16.567Z,100163.41
2022-07-26T06:35:18.884Z,100169.94
2022-07-26T06:37:21.194Z,100171.19
2022-07-26T06:39:23.235Z,100168.84
2022-07-26T06:41:25.339Z,100176.88
2022-07-26T06:43:27.402Z,100168.88
2022-07-26T06:45:29.733Z,100168.03
2022-07-26T06:47:31.748Z,100158.03
2022-07-26T06:49:33.831Z,100166.47
2022-07-26T06:51:35.952Z,100177.72
2022-07-26T06:53:38.084Z,100180.13
2022-07-26T06:55:41.020Z,100191.81
2022-07-26T06:57:49.991Z,100199.91
2022-07-26T06:59:52.885Z,100202.75
2022-07-26T07:01:59.182Z,100179.06
2022-07-26T07:04:01.959Z,100185.91
2022-07-26T07:06:04.124Z,100187.53
2022-07-26T07:08:07.301Z,100173.50
2022-07-26T07:10:09.735Z,100180.75
2022-07-26T07:12:11.765Z,100182.75
2022-07-26T07:14:13.740Z,100196.41
2022-07-26T07:16:15.925Z,100189.19
2022-07-26T07:18:18.018Z,100199.69
2022-07-26T07:20:20.038Z,100198.88
2022-07-26T07:22:22.127Z,100199.69
2022-07-26T07:24:24.127Z,100199.69
2022-07-26T07:26:26.276Z,100206.94
2022-07-26T07:28:28.336Z,100221.38
2022-07-26T07:30:30.508Z,100234.63
2022-07-26T07:32:32.555Z,100255.13
2022-07-26T07:34:34.946Z,100257.56
2022-07-26T07:36:38.139Z,100273.63
2022-07-26T07:38:42.817Z,100274.81
2022-07-26T07:40:45.044Z,100262.38
2022-07-26T07:42:47.042Z,100265.56
2022-07-26T07:44:50.226Z,100269.22
2022-07-26T07:46:52.397Z,100253.56
2022-07-26T07:48:54.495Z,100259.16
2022-07-26T07:50:56.582Z,100266.00
2022-07-26T07:52:59.220Z,100264.75
2022-07-26T07:55:37.092Z,100272.00
2022-07-26T07:57:24.261Z,100263.13
2022-07-26T07:59:26.368Z,100263.97
2022-07-26T08:01:40.127Z,100267.19
2022-07-26T08:03:43.009Z,100252.25
2022-07-26T08:05:52.257Z,100257.47
2022-07-26T08:07:54.292Z,100258.25
2022-07-26T08:09:56.296Z,100255.41
2022-07-26T08:11:58.874Z,100254.97
2022-07-26T08:14:00.928Z,100250.91
2022-07-26T08:16:03.035Z,100254.13
2022-07-26T08:18:08.734Z,100255.28
2022-07-26T08:20:13.791Z,100254.03
2022-07-26T08:22:18.068Z,100263.25
2022-07-26T08:24:20.083Z,100261.13
2022-07-26T08:26:22.109Z,100253.81
2022-07-26T08:28:45.631Z,100256.13
2022-07-26T08:30:47.728Z,100252.84
2022-07-26T08:32:49.764Z,100256.06
2022-07-26T08:34:51.856Z,100249.09
2022-07-26T08:37:15.337Z,100267.94
2022-07-26T08:39:16.437Z,100252.72
2022-07-26T08:41:18.828Z,100260.22
2022-07-26T08:43:20.890Z,100259.81
2022-07-26T08:45:24.311Z,100266.38
2022-07-26T08:47:35.476Z,100268.38
2022-07-26T08:49:42.485Z,100279.78
2022-07-26T08:51:44.861Z,100266.09
2022-07-26T08:53:47.542Z,100281.75
2022-07-26T08:56:07.318Z,100274.00
2022-07-26T08:58:09.729Z,100274.16
2022-07-26T09:00:25.661Z,100278.41
2022-07-26T09:02:40.027Z,100287.88
2022-07-26T09:04:45.149Z,100282.81
2022-07-26T09:07:10.432Z,100296.69
2022-07-26T09:09:12.833Z,100300.53
2022-07-26T09:11:23.807Z,100302.94
2022-07-26T09:13:25.814Z,100307.69
2022-07-26T09:15:28.201Z,100297.53
2022-07-26T09:17:45.020Z,100293.22
2022-07-26T09:19:47.156Z,100287.53
2022-07-26T09:21:49.361Z,100309.16
2022-07-26T09:23:51.399Z,100298.19
2022-07-26T09:25:54.879Z,100294.03
2022-07-26T09:27:57.226Z,100296.22
2022-07-26T09:30:06.804Z,100305.75
2022-07-26T09:32:22.005Z,100310.63
2022-07-26T09:34:26.926Z,100300.91
2022-07-26T09:36:28.970Z,100307.53
2022-07-26T09:38:43.784Z,100305.69
2022-07-26T09:40:46.806Z,100290.50
2022-07-26T09:43:01.081Z,100298.69
2022-07-26T09:45:15.140Z,100300.16
2022-07-26T09:47:17.161Z,100304.84
2022-07-26T09:49:21.122Z,100311.72
2022-07-26T09:51:55.257Z,100311.38
2022-07-26T09:53:57.272Z,100319.53
2022-07-26T09:55:59.308Z,100309.69
2022-07-26T09:58:03.907Z,100318.13
2022-07-26T10:00:07.630Z,100313.72
2022-07-26T10:02:10.507Z,100321.78
2022-07-26T10:04:13.164Z,100307.25
2022-07-26T10:06:15.333Z,100314.16
2022-07-26T10:08:18.305Z,100314.94
2022-07-26T10:10:50.915Z,100312.72
2022-07-26T10:12:53.101Z,100319.84
2022-07-26T10:14:57.309Z,100311.44
2022-07-26T10:17:26.810Z,100318.97
2022-07-26T10:19:45.383Z,100301.63
2022-07-26T10:21:49.301Z,100310.22
2022-07-26T10:24:04.392Z,100314.97
2022-07-26T10:26:09.812Z,100316.09
2022-07-26T10:28:24.089Z,100319.34
2022-07-26T10:30:33.806Z,100317.19
2022-07-26T10:32:36.513Z,100329.00
2022-07-26T10:34:39.853Z,100330.94
2022-07-26T10:36:41.836Z,100335.53
2022-07-26T10:38:43.867Z,100326.03
2022-07-26T10:40:58.550Z,100331.75
2022-07-26T10:43:37.955Z,100330.56
2022-07-26T10:45:32.230Z,100328.44
2022-07-26T10:47:35.508Z,100326.66
2022-07-26T10:49:38.384Z,100329.97
2022-07-26T10:51:41.440Z,100328.59
2022-07-26T10:53:43.488Z,100332.44
2022-07-26T10:55:55.768Z,100337.28
2022-07-26T10:57:57.772Z,100334.28
2022-07-26T11:00:00.226Z,100333.72
2022-07-26T11:02:02.249Z,100321.34
2022-07-26T11:04:04.559Z,100328.16
2022-07-26T11:06:14.099Z,100337.41
2022-07-26T11:08:16.153Z,100322.38
2022-07-26T11:10:25.409Z,100325.41
2022-07-26T11:12:27.526Z,100341.91
2022-07-26T11:14:29.537Z,100328.94
2022-07-26T11:16:47.334Z,100341.50
2022-07-26T11:18:49.326Z,100333.69
2022-07-26T11:20:54.881Z,100322.06
2022-07-26T11:22:56.886Z,100337.34
2022-07-26T11:24:58.917Z,100349.00
2022-07-26T11:27:04.280Z,100329.88
2022-07-26T11:29:06.954Z,100337.19
2022-07-26T11:31:09.156Z,100344.75
2022-07-26T11:33:12.439Z,100344.28
2022-07-26T11:35:14.459Z,100332.09
2022-07-26T11:37:16.486Z,100325.00
2022-07-26T11:39:26.573Z,100335.53
2022-07-26T11:41:34.563Z,100335.06
2022-07-26T11:43:38.726Z,100342.13
2022-07-26T11:45:40.760Z,100338.72
2022-07-26T11:47:42.757Z,100338.00
2022-07-26T11:50:00.893Z,100344.38
2022-07-26T11:52:06.975Z,100340.94
2022-07-26T11:54:09.186Z,100338.41
2022-07-26T11:56:19.512Z,100345.25
2022-07-26T11:58:21.581Z,100328.91
2022-07-26T12:00:24.007Z,100329.13
2022-07-26T12:02:26.060Z,100332.75
2022-07-26T12:04:34.045Z,100330.94
2022-07-26T12:06:38.536Z,100339.38
2022-07-26T12:08:50.401Z,100325.13
2022-07-26T12:10:55.055Z,100319.16
2022-07-26T12:13:10.957Z,100321.56
2022-07-26T12:15:15.637Z,100321.63
2022-07-26T12:17:18.059Z,100319.41
2022-07-26T12:19:25.266Z,100324.00
2022-07-26T12:21:46.237Z,100319.78
2022-07-26T12:23:49.406Z,100327.66
2022-07-26T12:25:51.914Z,100335.09
2022-07-26T12:27:53.992Z,100333.50
2022-07-26T12:30:02.405Z,100331.22
2022-07-26T12:32:12.553Z,100332.22
2022-07-26T12:34:21.510Z,100335.16
2022-07-26T12:36:27.713Z,100332.06
2022-07-26T12:38:40.800Z,100330.53
2022-07-26T12:40:42.955Z,100328.28
2022-07-26T12:42:50.853Z,100331.50
2022-07-26T12:44:52.986Z,100321.50
2022-07-26T12:46:54.974Z,100324.09
2022-07-26T12:49:00.426Z,100319.47
2022-07-26T12:51:02.963Z,100328.13
2022-07-26T12:53:09.002Z,100333.03
2022-07-26T12:55:19.159Z,100322.16
2022-07-26T12:57:21.732Z,100321.31
2022-07-26T12:59:23.717Z,100319.63
2022-07-26T13:01:25.869Z,100319.69
2022-07-26T13:03:28.468Z,100326.78
2022-07-26T13:05:31.695Z,100316.78
2022-07-26T13:07:33.742Z,100316.09
2022-07-26T13:09:36.585Z,100318.59
2022-07-26T13:11:38.649Z,100320.13
2022-07-26T13:13:40.772Z,100315.44
2022-07-26T13:15:44.601Z,100326.78
2022-07-26T13:17:46.629Z,100334.72
2022-07-26T13:19:48.671Z,100331.88
2022-07-26T13:21:53.007Z,100317.38
2022-07-26T13:23:55.318Z,100323.38
2022-07-26T13:25:57.608Z,100308.78
2022-07-26T13:27:59.745Z,100315.97
2022-07-26T13:30:02.042Z,100311.00
2022-07-26T13:32:04.656Z,100323.25
2022-07-26T13:34:06.778Z,100308.13
2022-07-26T13:36:08.811Z,100313.03
2022-07-26T13:38:10.835Z,100309.59
2022-07-26T13:40:13.077Z,100311.81
2022-07-26T13:42:17.115Z,100311.84
2022-07-26T13:44:19.227Z,100315.09
2022-07-26T13:46:21.526Z,100302.53
2022-07-26T13:48:23.606Z,100306.28
2022-07-26T13:50:25.662Z,100306.69
2022-07-26T13:52:27.665Z,100305.31
2022-07-26T13:54:32.096Z,100302.03
2022-07-26T13:56:34.086Z,100308.88
2022-07-26T13:58:36.418Z,100308.88
2022-07-26T14:00:39.402Z,100301.53
2022-07-26T14:02:41.593Z,100311.47
2022-07-26T14:04:43.717Z,100309.16
2022-07-26T14:06:45.784Z,100304.06
2022-07-26T14:08:47.769Z,100308.41
2022-07-26T14:10:49.775Z,100304.53
2022-07-26T14:12:52.013Z,100311.03
2022-07-26T14:14:54.047Z,100323.38
2022-07-26T14:16:56.160Z,100306.00
2022-07-26T14:18:58.426Z,100309.38
2022-07-26T14:21:00.421Z,100311.28
2022-07-26T14:23:02.430Z,100304.16
2022-07-26T14:25:06.077Z,100305.78
2022-07-26T14:27:08.219Z,100307.47
2022-07-26T14:29:10.255Z,100314.50
2022-07-26T14:31:12.440Z,100308.84
2022-07-26T14:33:14.515Z,100311.53
2022-07-26T14:35:19.257Z,100296.63
2022-07-26T14:37:44.157Z,100306.75
2022-07-26T14:39:43.312Z,100306.47
2022-07-26T14:41:45.363Z,100302.97
2022-07-26T14:43:52.500Z,100306.19
2022-07-26T14:45:57.727Z,100303.00
2022-07-26T14:47:59.785Z,100307.56
2022-07-26T14:50:06.506Z,100304.63
2022-07-26T14:52:10.799Z,100303.75
2022-07-26T14:54:14.464Z,100311.81
2022-07-26T14:56:16.723Z,100302.84
2022-07-26T14:58:18.961Z,100302.84
2022-07-26T15:00:20.939Z,100303.47
2022-07-26T15:02:23.313Z,100299.97
2022-07-26T15:04:25.315Z,100289.69
2022-07-26T15:06:27.369Z,100304.50
2022-07-26T15:08:29.415Z,100301.69
2022-07-26T15:10:31.518Z,100304.06
2022-07-26T15:12:33.567Z,100305.75
2022-07-26T15:14:36.386Z,100310.78
2022-07-26T15:16:38.493Z,100312.59
2022-07-26T15:18:40.556Z,100302.31
2022-07-26T15:20:42.617Z,100305.53
2022-07-26T15:22:44.976Z,100305.66
2022-07-26T15:24:46.920Z,100303.47
2022-07-26T15:26:48.995Z,100298.88
2022-07-26T15:28:51.023Z,100302.81
2022-07-26T15:30:53.064Z,100308.88
2022-07-26T15:32:56.520Z,100302.06
2022-07-26T15:34:58.708Z,100298.50
2022-07-26T15:37:00.822Z,100308.38
2022-07-26T15:39:15.935Z,100306.91
2022-07-26T15:41:18.455Z,100308.84
2022-07-26T15:43:46.757Z,100310.53
2022-07-26T15:45:46.375Z,100296.72
2022-07-26T15:48:01.284Z,100302.81
2022-07-26T15:50:11.851Z,100293.00
2022-07-26T15:52:13.890Z,100302.25
2022-07-26T15:54:16.695Z,100292.50
2022-07-26T15:56:18.732Z,100306.13
2022-07-26T15:58:21.316Z,100304.22
2022-07-26T16:00:23.302Z,100313.72
2022-07-26T16:02:25.351Z,100301.44
2022-07-26T16:04:27.560Z,100303.56
2022-07-26T16:06:29.539Z,100306.59
2022-07-26T16:08:31.577Z,100300.78
2022-07-26T16:10:33.551Z,100305.00
2022-07-26T16:12:35.534Z,100295.63
2022-07-26T16:14:37.549Z,100299.84
2022-07-26T16:16:39.634Z,100301.22
2022-07-26T16:18:41.783Z,100296.88
2022-07-26T16:20:44.100Z,100305.25
2022-07-26T16:22:47.292Z,100303.06
2022-07-26T16:24:49.450Z,100300.34
2022-07-26T16:26:52.520Z,100308.09
2022-07-26T16:28:54.554Z,100306.84
2022-07-26T16:30:56.566Z,100313.53
2022-07-26T16:32:58.582Z,100305.81
2022-07-26T16:35:00.582Z,100310.06
2022-07-26T16:37:02.785Z,100314.25
2022-07-26T16:39:04.828Z,100316.53
2022-07-26T16:41:06.865Z,100311.06
2022-07-26T16:43:11.908Z,100315.69
2022-07-26T16:45:14.233Z,100320.78
2022-07-26T16:47:16.296Z,100320.91
2022-07-26T16:49:18.466Z,100325.16
2022-07-26T16:51:20.593Z,100330.13
2022-07-26T16:53:22.619Z,100324.44
2022-07-26T16:55:24.712Z,100322.31
2022-07-26T16:57:26.995Z,100326.50
2022-07-26T16:59:29.013Z,100325.09
2022-07-26T17:01:31.073Z,100330.88
2022-07-26T17:03:33.076Z,100328.66
2022-07-26T17:05:35.041Z,100332.56
2022-07-26T17:07:37.116Z,100333.25
2022-07-26T17:09:39.127Z,100340.19
2022-07-26T17:11:41.115Z,100346.34
2022-07-26T17:13:43.117Z,100342.91
2022-07-26T17:15:45.138Z,100342.69
2022-07-26T17:17:49.015Z,100346.94
2022-07-26T17:19:51.160Z,100353.16
2022-07-26T17:21:53.235Z,100354.03
2022-07-26T17:23:55.223Z,100357.09
2022-07-26T17:25:57.245Z,100352.44
2022-07-26T17:27:59.286Z,100369.53
2022-07-26T17:30:06.502Z,100370.03
2022-07-26T17:32:10.534Z,100379.84
2022-07-26T17:34:12.518Z,100388.41
2022-07-26T17:36:24.786Z,100394.00
2022-07-26T17:38:26.941Z,100404.34
2022-07-26T17:40:29.476Z,100401.28
2022-07-26T17:42:31.879Z,100405.97
2022-07-26T17:44:33.985Z,100409.66
2022-07-26T17:46:36.015Z,100406.47
2022-07-26T17:48:38.066Z,100409.47
2022-07-26T17:50:40.108Z,100410.69
2022-07-26T17:52:42.082Z,100412.50
2022-07-26T17:54:44.085Z,100410.19
2022-07-26T17:56:46.838Z,100419.63
2022-07-26T17:58:48.853Z,100413.00
2022-07-26T18:00:51.928Z,100422.47
2022-07-26T18:02:53.902Z,100432.56
2022-07-26T18:04:56.235Z,100435.00
2022-07-26T18:06:58.353Z,100437.16
2022-07-26T18:09:00.784Z,100440.00
2022-07-26T18:11:07.455Z,100434.88
2022-07-26T18:13:09.467Z,100434.97
2022-07-26T18:15:11.708Z,100439.81
2022-07-26T18:17:13.747Z,100437.88
2022-07-26T18:19:24.297Z,100443.16
2022-07-26T18:21:26.358Z,100442.09
2022-07-26T18:23:28.390Z,100442.94
2022-07-26T18:25:30.695Z,100450.69
2022-07-26T18:27:32.682Z,100451.16
2022-07-26T18:29:34.678Z,100451.19
2022-07-26T18:31:36.775Z,100456.56
2022-07-26T18:33:38.803Z,100451.75
2022-07-26T18:35:40.862Z,100452.59
2022-07-26T18:37:42.849Z,100455.91
2022-07-26T18:39:44.861Z,100447.97
2022-07-26T18:41:46.864Z,100455.25
2022-07-26T18:43:48.879Z,100464.56
2022-07-26T18:45:50.909Z,100463.78
2022-07-26T18:47:53.066Z,100459.31
2022-07-26T18:49:55.855Z,100471.03
2022-07-26T18:52:00.714Z,100467.81
2022-07-26T18:54:08.072Z,100467.47
2022-07-26T18:56:10.054Z,100469.94
2022-07-26T18:58:12.057Z,100475.66
2022-07-26T19:00:17.884Z,100480.47
2022-07-26T19:02:19.914Z,100478.13
2022-07-26T19:04:22.001Z,100483.78
2022-07-26T19:06:24.769Z,100492.31
2022-07-26T19:08:26.789Z,100484.63
2022-07-26T19:10:28.815Z,100491.50
2022-07-26T19:12:30.842Z,100490.69
2022-07-26T19:14:32.846Z,100494.72
2022-07-26T19:16:34.851Z,100499.19
2022-07-26T19:18:37.292Z,100490.38
2022-07-26T19:20:39.315Z,100493.25
2022-07-26T19:22:41.328Z,100502.88
2022-07-26T19:24:43.367Z,100497.66
2022-07-26T19:26:45.496Z,100500.88
2022-07-26T19:28:47.552Z,100499.66
2022-07-26T19:30:49.587Z,100505.34
2022-07-26T19:32:51.646Z,100510.19
2022-07-26T19:34:55.379Z,100509.78
2022-07-26T19:36:57.430Z,100505.34
2022-07-26T19:39:01.273Z,100497.72
2022-07-26T19:41:03.409Z,100510.19
2022-07-26T19:43:05.526Z,100515.47
2022-07-26T19:45:08.245Z,100515.50
2022-07-26T19:47:10.277Z,100523.94
2022-07-26T19:49:12.832Z,100517.50
2022-07-26T19:51:15.241Z,100538.03
2022-07-26T19:53:17.831Z,100526.75
2022-07-26T19:55:19.898Z,100521.13
2022-07-26T19:57:21.912Z,100531.59
2022-07-26T19:59:24.638Z,100534.41
2022-07-26T20:01:28.246Z,100536.03
2022-07-26T20:03:30.525Z,100538.03
2022-07-26T20:05:32.512Z,100539.66
2022-07-26T20:07:36.232Z,100544.47
2022-07-26T20:09:38.236Z,100544.06
2022-07-26T20:11:40.294Z,100542.88
2022-07-26T20:13:42.387Z,100559.75
2022-07-26T20:15:44.466Z,100556.53
2022-07-26T20:17:46.641Z,100556.91
2022-07-26T20:19:48.687Z,100548.84
2022-07-26T20:21:50.695Z,100555.28
2022-07-26T20:23:53.039Z,100561.34
2022-07-26T20:25:55.165Z,100566.16
2022-07-26T20:27:57.162Z,100562.53
2022-07-26T20:30:01.290Z,100568.16
2022-07-26T20:32:03.584Z,100557.31
2022-07-26T20:34:05.599Z,100564.94
2022-07-26T20:36:07.652Z,100566.53
2022-07-26T20:38:09.662Z,100570.16
2022-07-26T20:40:12.534Z,100573.38
2022-07-26T20:42:21.938Z,100572.16
2022-07-26T20:44:28.142Z,100566.91
2022-07-26T20:46:30.765Z,100567.72
2022-07-26T20:48:32.870Z,100571.72
2022-07-26T20:50:35.152Z,100572.13
2022-07-26T20:52:37.151Z,100572.50
2022-07-26T20:54:39.148Z,100567.69
2022-07-26T20:56:41.158Z,100576.50
2022-07-26T20:58:43.207Z,100582.94
2022-07-26T21:00:45.204Z,100572.84
2022-07-26T21:02:47.384Z,100575.66
2022-07-26T21:04:49.482Z,100584.88
2022-07-26T21:06:52.402Z,100590.13
2022-07-26T21:08:54.604Z,100591.72
2022-07-26T21:10:56.644Z,100591.25
2022-07-26T21:13:00.502Z,100593.63
2022-07-26T21:15:02.547Z,100598.44
2022-07-26T21:17:09.300Z,100596.44
2022-07-26T21:19:13.910Z,100594.78
2022-07-26T21:21:16.285Z,100600.38
2022-07-26T21:23:18.482Z,100608.38
2022-07-26T21:25:21.103Z,100606.75
2022-07-26T21:27:23.090Z,100606.31
2022-07-26T21:29:25.165Z,100610.72
2022-07-26T21:31:27.222Z,100610.69
2022-07-26T21:33:29.262Z,100611.84
2022-07-26T21:35:31.291Z,100607.38
2022-07-26T21:37:33.313Z,100619.38
2022-07-26T21:39:35.360Z,100619.38
2022-07-26T21:41:37.538Z,100622.94
2022-07-26T21:43:39.674Z,100611.66
2022-07-26T21:48:11.207Z,100634.44
2022-07-26T21:50:13.211Z,100633.59
2022-07-26T21:52:15.348Z,100634.38
2022-07-26T21:54:17.340Z,100637.16
2022-07-26T21:56:19.506Z,100637.47
2022-07-26T21:58:22.742Z,100633.88
2022-07-26T22:00:26.284Z,100639.47
2022-07-26T22:02:28.352Z,100637.44
2022-07-26T22:04:30.935Z,100643.00
2022-07-26T22:06:32.926Z,100652.16
2022-07-26T22:08:34.980Z,100642.84
2022-07-26T22:10:43.447Z,100644.81
2022-07-26T22:12:46.912Z,100645.16
2022-07-26T22:14:48.924Z,100645.53
2022-07-26T22:16:51.025Z,100651.13
2022-07-26T22:18:53.051Z,100641.81
2022-07-26T22:20:55.272Z,100652.22
2022-07-26T22:23:08.392Z,100658.56
2022-07-26T22:25:10.442Z,100658.53
2022-07-26T22:27:12.446Z,100658.16
2022-07-26T22:29:14.801Z,100655.31
2022-07-26T22:31:16.991Z,100660.06
2022-07-26T22:33:19.514Z,100663.63
2022-07-26T22:35:21.510Z,100660.00
2022-07-26T22:37:23.736Z,100657.88
2022-07-26T22:39:25.798Z,100646.97
2022-07-26T22:41:31.923Z,100658.09
2022-07-26T22:43:34.717Z,100660.47
2022-07-26T22:45:37.029Z,100662.88
2022-07-26T22:47:39.686Z,100653.19
2022-07-26T22:49:58.196Z,100655.06
2022-07-26T22:52:00.221Z,100663.09
2022-07-26T22:54:02.244Z,100655.47
2022-07-26T22:56:04.462Z,100650.97
2022-07-26T22:58:06.484Z,100653.78
2022-07-26T23:00:09.685Z,100663.28
2022-07-26T23:02:11.715Z,100665.69
2022-07-26T23:04:13.756Z,100659.16
2022-07-26T23:06:21.004Z,100655.47
2022-07-26T23:08:47.054Z,100645.03
2022-07-26T23:10:49.858Z,100652.63
2022-07-26T23:12:53.478Z,100658.56
2022-07-26T23:14:55.499Z,100660.91
2022-07-26T23:16:57.551Z,100644.03
2022-07-26T23:18:59.588Z,100652.84
2022-07-26T23:21:01.662Z,100660.41
2022-07-26T23:23:05.730Z,100660.41
2022-07-26T23:25:08.206Z,100663.22
2022-07-26T23:27:10.216Z,100653.53
2022-07-26T23:29:12.720Z,100657.09
2022-07-26T23:31:14.965Z,100648.97
2022-07-26T23:33:17.025Z,100653.81
2022-07-26T23:35:24.873Z,100658.50
2022-07-26T23:37:26.954Z,100661.63
2022-07-26T23:39:28.971Z,100661.97
2022-07-26T23:41:30.998Z,100654.34